KMOB/MOB METAR and TAF weather

Enter ICAO airport designator
Station Type Date Time Source
KMOB METAR 2020/12/01 20:56 UTC NOAA

KMOB 012056Z 36006KT 10SM CLR 12/M07 A3021 RMK AO2 SLP229 T01221072 56020


Station Type Date Time Source
KMOB Decoded METAR 2020/12/01 20:56 UTC NOAA

MOBILE REGIONAL AIRPORT, AL, United States (KMOB) 30-41N 88-14W 67M
Dec 01, 2020 - 03:56 PM EST / 2020.12.01 2056 UTC
Wind: from the N (360 degrees) at 7 MPH (6 KT):0
Visibility: 10 mile(s):0
Sky conditions: clear
Temperature: 54.0 F (12.2 C)
Dew Point: 19.0 F (-7.2 C)
Relative Humidity: 25%
Pressure (altimeter): 30.21 in. Hg (1023 hPa)
Pressure tendency: 0.06 inches (2.0 hPa) lower than three hours ago
ob: KMOB 012056Z 36006KT 10SM CLR 12/M07 A3021 RMK AO2 SLP229 T01221072 56020
cycle: 21

Station Type Date Time Source
KMOB TAF 2020/12/01 18:30 UTC NOAA

TAF KMOB 011728Z 0118/0218 30006KT P6SM SKC
FM020000 00000KT P6SM SKC
FM021400 07007KT P6SM FEW250

Example: see airport list